Time;durP1;ratioP1;P1;durP2;ratioP2;P2;SDS_P1;SDS_P2;PMS_P1;PMS_P2;Temp;Humidity;BMP_temperature;BMP_pressure;BME280_temperature;BME280_humidity;BME280_pressure;Samples;Min_cycle;Max_cycle;Signal;HPM_P1;HPM_P2
2023/03/07 00:00:39;;;;;;;18.67;10.02;;;5.10;99.90;;;;;;5013573;28;20403;-69
2023/03/07 00:03:05;;;;;;;19.20;10.27;;;5.10;99.90;;;;;;5013301;28;20029;-69
2023/03/07 00:05:31;;;;;;;18.30;9.47;;;5.20;99.90;;;;;;5013423;28;20026;-70
2023/03/07 00:08:00;;;;;;;19.77;9.77;;;5.20;99.90;;;;;;4995563;28;20053;-70
2023/03/07 00:10:25;;;;;;;19.15;10.23;;;5.20;99.90;;;;;;5013410;28;20018;-70
2023/03/07 00:12:51;;;;;;;18.10;9.07;;;5.20;99.90;;;;;;5013056;28;20438;-69
2023/03/07 00:15:16;;;;;;;18.87;9.60;;;5.20;99.90;;;;;;4996073;28;20117;-70
2023/03/07 00:17:42;;;;;;;16.10;8.90;;;5.20;99.90;;;;;;5014375;28;20130;-70
2023/03/07 00:20:15;;;;;;;19.40;10.23;;;5.20;99.90;;;;;;5014506;28;20048;-71
2023/03/07 00:22:42;;;;;;;20.77;10.93;;;5.20;99.90;;;;;;5013640;28;20522;-71
2023/03/07 00:25:09;;;;;;;17.80;9.77;;;5.30;99.90;;;;;;5013461;28;20053;-70
2023/03/07 00:27:35;;;;;;;18.02;9.50;;;5.20;99.90;;;;;;5013000;28;20113;-69
2023/03/07 00:30:01;;;;;;;19.17;9.30;;;5.20;99.90;;;;;;4995723;28;20034;-70
2023/03/07 00:32:27;;;;;;;19.58;9.32;;;5.10;99.90;;;;;;5014860;28;20026;-70
2023/03/07 00:34:54;;;;;;;20.10;10.93;;;5.20;99.90;;;;;;5015047;28;20056;-70
2023/03/07 00:37:19;;;;;;;19.50;10.38;;;5.20;99.90;;;;;;4997449;28;20273;-70
2023/03/07 00:39:45;;;;;;;17.07;9.73;;;5.20;99.90;;;;;;4996451;28;20034;-70
2023/03/07 00:42:10;;;;;;;17.13;10.20;;;5.20;99.90;;;;;;4996391;28;20109;-70
2023/03/07 00:44:36;;;;;;;18.80;9.83;;;5.20;99.90;;;;;;4997202;28;20068;-70
2023/03/07 00:47:02;;;;;;;18.67;9.83;;;5.20;99.90;;;;;;5014537;28;20390;-70
2023/03/07 00:49:27;;;;;;;19.00;9.67;;;5.20;99.90;;;;;;5015190;28;20026;-70
2023/03/07 00:51:53;;;;;;;19.13;10.07;;;5.10;99.90;;;;;;4997355;28;20048;-70
2023/03/07 00:54:19;;;;;;;19.33;9.40;;;5.20;99.90;;;;;;4996483;28;20064;-70
2023/03/07 00:56:44;;;;;;;22.13;10.70;;;5.10;99.90;;;;;;4995253;28;20041;-70
2023/03/07 00:59:10;;;;;;;17.27;9.60;;;5.10;99.90;;;;;;5013078;28;20057;-70
2023/03/07 01:01:36;;;;;;;17.20;8.80;;;5.20;99.90;;;;;;4995541;28;20323;-70
2023/03/07 01:04:01;;;;;;;17.63;9.33;;;5.20;99.90;;;;;;5012895;28;20029;-69
2023/03/07 01:06:30;;;;;;;19.07;9.27;;;5.20;99.90;;;;;;5016059;28;20403;-70
2023/03/07 01:08:58;;;;;;;19.58;9.80;;;5.20;99.90;;;;;;5016873;28;20029;-69
2023/03/07 01:11:24;;;;;;;17.60;9.50;;;5.10;99.90;;;;;;4998856;28;20061;-69
2023/03/07 01:13:50;;;;;;;18.65;9.52;;;5.10;99.90;;;;;;5016600;28;20029;-69
2023/03/07 01:16:22;;;;;;;20.10;10.40;;;5.10;99.90;;;;;;5016786;28;20072;-70
2023/03/07 01:18:51;;;;;;;19.77;9.93;;;5.20;99.90;;;;;;4998818;28;20034;-70
2023/03/07 01:21:37;;;;;;;20.17;10.15;;;5.10;99.90;;;;;;5016559;28;20136;-70
2023/03/07 01:24:04;;;;;;;44.15;21.50;;;5.00;99.90;;;;;;4998585;28;20018;-70
2023/03/07 01:26:32;;;;;;;25.08;12.63;;;5.00;99.90;;;;;;5015973;28;20018;-69
2023/03/07 01:29:00;;;;;;;19.15;10.55;;;5.10;99.90;;;;;;5016290;28;20025;-70
2023/03/07 01:31:26;;;;;;;19.70;10.90;;;5.10;99.90;;;;;;4998617;28;20466;-71
2023/03/07 01:33:52;;;;;;;18.75;10.73;;;5.10;99.90;;;;;;5016266;28;20034;-70
2023/03/07 01:36:29;;;;;;;20.33;10.75;;;5.00;99.90;;;;;;5016173;28;20030;-70
2023/03/07 01:39:06;;;;;;;;;;;4.90;99.90;;;;;;4999147;28;20029;-71
2023/03/07 01:41:36;;;;;;;19.52;11.00;;;4.90;99.90;;;;;;4998770;28;20325;-70
2023/03/07 01:44:06;;;;;;;23.27;11.50;;;4.90;99.90;;;;;;5017309;28;20022;-72
2023/03/07 01:46:52;;;;;;;19.95;11.00;;;4.90;99.90;;;;;;5018278;28;20044;-70
2023/03/07 01:49:39;;;;;;;23.80;10.95;;;4.80;99.90;;;;;;5023890;28;20038;-71
2023/03/07 01:52:13;;;;;;;21.35;11.00;;;4.70;99.90;;;;;;5022040;28;20025;-70
2023/03/07 01:54:47;;;;;;;23.88;11.50;;;4.60;99.90;;;;;;5015794;28;20430;-70
2023/03/07 01:57:14;;;;;;;21.88;11.55;;;4.70;99.90;;;;;;5016225;28;20414;-69
2023/03/07 01:59:43;;;;;;;23.42;11.45;;;4.50;99.90;;;;;;5015844;28;20022;-69
2023/03/07 02:02:12;;;;;;;21.38;11.75;;;4.60;99.90;;;;;;5014683;28;20030;-70
2023/03/07 02:04:48;;;;;;;20.55;11.02;;;4.50;99.90;;;;;;5014457;28;20025;-70
2023/03/07 02:07:15;;;;;;;21.70;12.32;;;4.50;99.90;;;;;;5015811;28;20045;-71
2023/03/07 02:09:43;;;;;;;24.73;12.30;;;4.40;99.90;;;;;;5015266;28;20097;-70
2023/03/07 02:12:09;;;;;;;23.10;12.18;;;4.30;99.90;;;;;;5014676;28;20034;-71
2023/03/07 02:14:35;;;;;;;23.08;11.85;;;4.20;99.90;;;;;;5017335;28;20430;-70
2023/03/07 02:17:02;;;;;;;26.35;12.15;;;4.10;99.90;;;;;;5020098;28;20038;-70
2023/03/07 02:19:37;;;;;;;21.88;12.15;;;4.20;99.90;;;;;;5017537;28;20391;-70
2023/03/07 02:22:16;;;;;;;24.60;11.75;;;4.20;99.90;;;;;;5015638;28;20105;-70
2023/03/07 02:24:47;;;;;;;21.40;11.60;;;4.10;99.90;;;;;;5013735;28;20022;-70
2023/03/07 02:27:14;;;;;;;22.00;10.85;;;4.10;99.90;;;;;;5014772;28;20097;-70
2023/03/07 02:29:39;;;;;;;26.05;11.50;;;4.10;99.90;;;;;;5013549;28;20060;-69
2023/03/07 02:32:05;;;;;;;26.00;11.80;;;4.10;99.90;;;;;;5014900;28;20029;-70
2023/03/07 02:34:31;;;;;;;22.92;11.70;;;4.10;99.90;;;;;;5014602;28;20320;-70
2023/03/07 02:37:03;;;;;;;24.17;13.13;;;4.10;99.90;;;;;;5013414;28;20430;-69
2023/03/07 02:39:29;;;;;;;24.65;11.52;;;4.10;99.90;;;;;;5012562;28;20029;-70
2023/03/07 02:41:59;;;;;;;24.10;11.60;;;4.20;99.90;;;;;;5014497;28;20128;-69
2023/03/07 02:44:25;;;;;;;23.33;11.60;;;4.10;99.90;;;;;;5014659;28;20363;-70
2023/03/07 02:46:50;;;;;;;20.97;11.13;;;4.20;99.90;;;;;;4997190;28;20022;-70
2023/03/07 02:49:16;;;;;;;21.17;11.73;;;4.20;99.90;;;;;;4997127;28;20037;-70
2023/03/07 02:51:42;;;;;;;18.73;10.35;;;4.10;99.90;;;;;;5014725;28;20022;-70
2023/03/07 02:54:08;;;;;;;23.83;12.37;;;4.10;99.90;;;;;;5015062;28;20042;-69
2023/03/07 02:56:34;;;;;;;20.20;10.77;;;4.20;99.90;;;;;;5014633;28;20113;-69
2023/03/07 02:58:59;;;;;;;20.13;10.73;;;4.20;99.90;;;;;;5014605;28;20087;-69
2023/03/07 03:01:25;;;;;;;23.37;10.17;;;4.30;99.90;;;;;;5014670;28;20076;-70
2023/03/07 03:03:51;;;;;;;19.20;10.53;;;4.30;99.90;;;;;;5014622;28;20475;-69
2023/03/07 03:06:16;;;;;;;20.10;10.93;;;4.40;99.90;;;;;;4996886;28;20018;-69
2023/03/07 03:08:42;;;;;;;18.40;10.53;;;4.40;99.90;;;;;;5013845;28;20029;-70
2023/03/07 03:11:07;;;;;;;21.23;10.90;;;4.40;99.90;;;;;;4995960;28;20030;-68
2023/03/07 03:13:33;;;;;;;20.90;10.40;;;4.30;99.90;;;;;;4996157;28;20029;-69
2023/03/07 03:15:58;;;;;;;22.43;11.10;;;4.30;99.90;;;;;;4996215;28;20064;-69
2023/03/07 03:18:27;;;;;;;20.80;10.73;;;4.30;99.90;;;;;;5014020;28;20026;-69
2023/03/07 03:20:52;;;;;;;21.02;11.00;;;4.30;99.90;;;;;;5013525;28;20506;-69
2023/03/07 03:23:18;;;;;;;20.60;10.47;;;4.40;99.90;;;;;;4996239;28;20033;-69
2023/03/07 03:25:44;;;;;;;18.43;10.27;;;4.50;99.90;;;;;;5014475;28;20026;-70
2023/03/07 03:28:09;;;;;;;21.35;10.48;;;4.50;99.90;;;;;;5013618;28;20136;-70
2023/03/07 03:30:35;;;;;;;22.57;11.27;;;4.60;99.90;;;;;;4996797;28;20117;-69
2023/03/07 03:33:03;;;;;;;22.20;10.93;;;4.50;99.90;;;;;;5013594;28;20506;-70
2023/03/07 03:35:29;;;;;;;22.05;11.23;;;4.50;99.90;;;;;;4996017;28;20030;-69
2023/03/07 03:37:55;;;;;;;19.33;9.90;;;4.60;99.90;;;;;;5013346;28;20056;-69
2023/03/07 03:40:20;;;;;;;18.83;10.65;;;4.50;99.90;;;;;;4995594;28;20084;-69
2023/03/07 03:42:46;;;;;;;20.20;10.50;;;4.50;99.90;;;;;;5013789;28;20038;-71
2023/03/07 03:45:15;;;;;;;18.27;9.73;;;4.60;99.90;;;;;;5013580;28;20105;-70
2023/03/07 03:47:41;;;;;;;21.58;10.43;;;4.60;99.90;;;;;;4996003;28;20034;-70
2023/03/07 03:50:08;;;;;;;19.73;9.57;;;4.50;99.90;;;;;;5013414;28;20063;-69
2023/03/07 03:52:35;;;;;;;18.00;9.93;;;4.50;99.90;;;;;;5013351;28;20033;-70
2023/03/07 03:55:01;;;;;;;19.52;10.23;;;4.60;99.90;;;;;;5013152;28;20033;-70
2023/03/07 03:57:26;;;;;;;23.27;10.30;;;4.60;99.90;;;;;;5013806;28;20379;-70
2023/03/07 03:59:52;;;;;;;19.90;10.57;;;4.50;99.90;;;;;;5013358;28;20518;-70
2023/03/07 04:02:18;;;;;;;16.48;9.35;;;4.50;99.90;;;;;;5013362;28;20104;-70
2023/03/07 04:04:43;;;;;;;21.47;9.87;;;4.50;99.90;;;;;;5013148;28;20471;-70
2023/03/07 04:07:09;;;;;;;19.30;10.17;;;4.50;99.90;;;;;;5013174;28;20014;-70
2023/03/07 04:09:34;;;;;;;17.70;9.40;;;4.50;99.90;;;;;;5013252;28;20108;-70
2023/03/07 04:12:01;;;;;;;21.10;9.63;;;4.50;99.90;;;;;;4995552;28;20022;-70
2023/03/07 04:14:26;;;;;;;;;;;4.50;99.90;;;;;;5014536;28;20557;-70
2023/03/07 04:16:52;;;;;;;20.80;10.10;;;4.50;99.90;;;;;;5013902;28;19956;-70
2023/03/07 04:19:17;;;;;;;19.50;9.50;;;4.50;99.90;;;;;;4995933;28;20022;-70
2023/03/07 04:21:43;;;;;;;23.00;10.67;;;4.60;99.90;;;;;;4995660;28;20032;-70
2023/03/07 04:24:09;;;;;;;20.10;9.60;;;4.50;99.90;;;;;;5013174;28;20022;-69
2023/03/07 04:26:35;;;;;;;18.45;8.93;;;4.50;99.90;;;;;;5021962;28;20022;-69
2023/03/07 04:29:01;;;;;;;19.05;9.68;;;4.50;99.90;;;;;;5028047;28;20059;-70
2023/03/07 04:31:27;;;;;;;18.48;10.27;;;4.50;99.90;;;;;;5013107;28;20033;-70
2023/03/07 04:33:55;;;;;;;17.48;8.82;;;4.60;99.90;;;;;;5012862;28;20034;-69
2023/03/07 04:36:22;;;;;;;18.42;9.60;;;4.60;99.90;;;;;;5011533;28;20080;-69
2023/03/07 04:38:48;;;;;;;17.02;8.45;;;4.60;99.90;;;;;;5013098;28;20025;-70
2023/03/07 04:41:19;;;;;;;16.05;8.68;;;4.60;99.90;;;;;;5014159;28;20050;-70
2023/03/07 04:43:45;;;;;;;15.68;9.48;;;4.60;99.90;;;;;;5015337;28;20117;-70
2023/03/07 04:46:13;;;;;;;18.98;9.70;;;4.60;99.90;;;;;;5016725;28;20057;-70
2023/03/07 04:48:38;;;;;;;19.15;9.05;;;4.60;99.90;;;;;;5015354;28;20501;-71
2023/03/07 04:51:04;;;;;;;17.00;9.10;;;4.50;99.90;;;;;;5016601;28;20101;-70
2023/03/07 04:53:30;;;;;;;16.63;9.00;;;4.60;99.90;;;;;;5016705;28;20068;-70
2023/03/07 04:56:00;;;;;;;16.17;8.43;;;4.70;99.90;;;;;;4998806;28;20494;-70
2023/03/07 04:58:27;;;;;;;17.52;8.43;;;4.70;99.90;;;;;;5016864;28;20491;-69
2023/03/07 05:00:53;;;;;;;17.45;8.82;;;4.70;99.90;;;;;;4999602;28;20072;-70
2023/03/07 05:03:18;;;;;;;16.58;8.65;;;4.80;99.90;;;;;;4999509;28;20037;-70
2023/03/07 05:05:44;;;;;;;17.00;8.57;;;4.80;99.90;;;;;;5016880;28;20052;-70
2023/03/07 05:08:09;;;;;;;16.40;8.73;;;4.80;99.90;;;;;;5016785;28;20087;-71
2023/03/07 05:10:36;;;;;;;17.97;9.67;;;4.80;99.90;;;;;;4998980;28;20022;-70
2023/03/07 05:13:02;;;;;;;19.98;9.68;;;4.80;99.90;;;;;;4998824;28;20033;-70
2023/03/07 05:15:28;;;;;;;16.27;8.45;;;4.80;99.90;;;;;;5016894;28;20045;-70
2023/03/07 05:17:53;;;;;;;17.30;9.77;;;4.90;99.90;;;;;;5016549;28;20026;-71
2023/03/07 05:20:19;;;;;;;18.50;8.50;;;4.90;99.90;;;;;;5016492;28;20053;-70
2023/03/07 05:22:44;;;;;;;17.13;8.83;;;4.90;99.90;;;;;;5016704;28;20467;-71
2023/03/07 05:25:10;;;;;;;15.90;9.63;;;4.90;99.90;;;;;;5016280;28;20025;-71
2023/03/07 05:27:37;;;;;;;15.53;8.63;;;4.90;99.90;;;;;;5016294;28;20022;-73
2023/03/07 05:30:03;;;;;;;;;;;4.90;99.90;;;;;;5016647;28;20030;-71
2023/03/07 05:32:30;;;;;;;16.95;8.70;;;4.90;99.90;;;;;;5016582;28;20001;-71
2023/03/07 05:34:55;;;;;;;17.57;8.97;;;5.00;99.90;;;;;;5016124;28;20482;-71
2023/03/07 05:37:21;;;;;;;14.93;8.57;;;4.80;99.90;;;;;;5016783;28;20030;-72
2023/03/07 05:39:47;;;;;;;14.20;8.23;;;4.80;99.90;;;;;;5016044;28;20030;-71
2023/03/07 05:42:14;;;;;;;15.20;8.40;;;4.90;99.90;;;;;;5015203;28;20124;-70
2023/03/07 05:44:40;;;;;;;16.50;8.23;;;4.90;99.90;;;;;;5016001;28;20025;-70
2023/03/07 05:47:05;;;;;;;16.15;9.02;;;4.90;99.90;;;;;;5016240;28;20088;-70
2023/03/07 05:49:31;;;;;;;15.00;8.17;;;4.90;99.90;;;;;;5015687;28;20034;-70
2023/03/07 05:51:57;;;;;;;16.53;8.33;;;4.90;99.90;;;;;;5009870;28;20034;-72
2023/03/07 05:54:22;;;;;;;17.57;9.07;;;4.90;99.90;;;;;;4998216;28;20368;-67
2023/03/07 05:56:48;;;;;;;18.00;9.00;;;5.00;99.90;;;;;;5015318;28;20030;-70
2023/03/07 05:59:15;;;;;;;13.83;7.53;;;5.00;99.90;;;;;;5015610;28;20073;-70
2023/03/07 06:01:43;;;;;;;16.48;9.23;;;5.00;99.90;;;;;;5015447;28;20026;-71
2023/03/07 06:04:09;;;;;;;17.50;8.25;;;5.00;99.90;;;;;;5014610;28;20026;-70
2023/03/07 06:06:35;;;;;;;16.45;8.23;;;5.00;99.90;;;;;;5015496;28;20026;-72
2023/03/07 06:09:02;;;;;;;15.67;8.77;;;4.90;99.90;;;;;;5015826;28;20026;-71
2023/03/07 06:11:28;;;;;;;16.23;8.70;;;5.00;99.90;;;;;;5004724;28;20037;-70
2023/03/07 06:13:54;;;;;;;20.55;7.93;;;5.00;99.90;;;;;;4998024;28;20057;-70
2023/03/07 06:16:20;;;;;;;17.27;8.80;;;5.00;99.90;;;;;;5013926;28;20038;-70
2023/03/07 06:18:46;;;;;;;16.25;9.05;;;5.10;99.90;;;;;;5014767;28;20811;-70
2023/03/07 06:21:14;;;;;;;15.17;8.60;;;5.10;99.90;;;;;;4997972;28;20034;-70
2023/03/07 06:23:40;;;;;;;14.63;8.27;;;5.10;99.90;;;;;;5015222;28;20030;-70
2023/03/07 06:26:07;;;;;;;13.23;7.83;;;5.10;99.90;;;;;;5015917;28;20069;-70
2023/03/07 06:28:33;;;;;;;;;;;5.10;99.90;;;;;;4998374;28;20431;-70
2023/03/07 06:30:58;;;;;;;15.35;7.82;;;5.20;99.90;;;;;;5015609;28;19906;-72
2023/03/07 06:33:24;;;;;;;19.03;8.90;;;5.20;99.90;;;;;;5027780;28;20072;-71
2023/03/07 06:35:50;;;;;;;17.23;9.40;;;5.20;99.90;;;;;;5022535;28;20029;-70
2023/03/07 06:38:16;;;;;;;22.40;9.70;;;5.30;99.90;;;;;;5003908;28;20061;-71
2023/03/07 06:40:42;;;;;;;13.27;7.78;;;5.20;99.90;;;;;;5004089;28;20022;-71
2023/03/07 06:43:08;;;;;;;13.27;7.38;;;5.30;99.90;;;;;;5009946;28;20030;-71
2023/03/07 06:45:35;;;;;;;16.80;8.52;;;5.20;99.90;;;;;;5001647;28;20030;-71
2023/03/07 06:48:01;;;;;;;14.25;8.18;;;5.30;99.90;;;;;;5004871;28;20030;-71
2023/03/07 06:50:26;;;;;;;15.53;8.20;;;5.40;99.90;;;;;;5016936;28;20022;-71
2023/03/07 06:52:52;;;;;;;15.77;8.37;;;5.40;99.90;;;;;;4997867;28;20128;-66
2023/03/07 06:55:19;;;;;;;18.87;8.80;;;5.40;99.90;;;;;;4997013;28;20537;-67
2023/03/07 06:57:45;;;;;;;17.27;8.05;;;5.20;99.90;;;;;;4997025;28;20068;-67
2023/03/07 07:00:11;;;;;;;17.63;8.63;;;5.20;99.90;;;;;;5014834;28;20368;-67
2023/03/07 07:02:37;;;;;;;15.38;8.25;;;5.20;99.90;;;;;;5014000;28;20112;-66
2023/03/07 07:05:03;;;;;;;14.53;7.60;;;5.30;99.90;;;;;;5014802;28;20069;-67
2023/03/07 07:07:29;;;;;;;14.15;8.02;;;5.30;99.90;;;;;;5015696;28;20165;-66
2023/03/07 07:09:54;;;;;;;13.45;7.38;;;5.40;99.90;;;;;;5017420;28;20064;-66
2023/03/07 07:12:20;;;;;;;15.33;8.03;;;5.40;99.90;;;;;;5017088;28;20140;-73
2023/03/07 07:14:46;;;;;;;17.03;9.37;;;5.40;99.90;;;;;;5017003;28;20026;-73
2023/03/07 07:17:12;;;;;;;15.25;7.65;;;5.40;99.90;;;;;;5016465;28;20026;-73
2023/03/07 07:19:37;;;;;;;14.80;8.20;;;5.40;99.90;;;;;;5019323;28;20026;-68
2023/03/07 07:22:03;;;;;;;15.63;8.77;;;5.50;99.90;;;;;;5017660;28;20077;-67
2023/03/07 07:24:29;;;;;;;15.20;7.30;;;5.50;99.90;;;;;;5016071;28;20072;-67
2023/03/07 07:26:55;;;;;;;14.15;7.28;;;5.60;99.90;;;;;;5014789;28;20021;-67
2023/03/07 07:29:21;;;;;;;17.15;7.18;;;5.70;99.90;;;;;;5014459;28;20480;-68
2023/03/07 07:31:48;;;;;;;12.68;7.50;;;5.80;99.90;;;;;;5014596;28;20060;-66
2023/03/07 07:34:14;;;;;;;14.25;7.82;;;5.80;99.90;;;;;;5014225;28;20030;-73
2023/03/07 07:36:40;;;;;;;15.52;7.65;;;5.90;99.90;;;;;;5013147;28;20022;-74
2023/03/07 07:39:06;;;;;;;19.93;10.47;;;5.80;99.90;;;;;;5014405;28;20062;-68
2023/03/07 07:41:32;;;;;;;11.80;7.43;;;5.80;99.90;;;;;;5014230;28;20080;-70
2023/03/07 07:43:58;;;;;;;;;;;5.80;99.90;;;;;;5014610;28;20088;-71
2023/03/07 07:46:24;;;;;;;15.35;7.68;;;5.80;99.90;;;;;;5013505;28;19913;-69
2023/03/07 07:48:49;;;;;;;14.93;7.15;;;5.90;99.90;;;;;;5004243;28;20067;-70
2023/03/07 07:51:15;;;;;;;13.10;7.83;;;5.80;99.90;;;;;;4994873;28;20045;-68
2023/03/07 07:53:41;;;;;;;17.73;9.45;;;5.80;99.90;;;;;;4994901;28;20038;-69
2023/03/07 07:56:07;;;;;;;14.63;7.30;;;5.80;99.90;;;;;;5009039;28;20033;-70
2023/03/07 07:58:33;;;;;;;12.55;7.55;;;5.90;99.90;;;;;;4996310;28;20030;-68
2023/03/07 08:00:59;;;;;;;14.23;8.67;;;6.00;99.90;;;;;;5014063;28;20101;-68
2023/03/07 08:03:24;;;;;;;13.50;7.45;;;6.10;99.90;;;;;;5013741;28;20264;-70
2023/03/07 08:05:50;;;;;;;13.40;7.07;;;6.10;99.90;;;;;;5014021;28;20117;-69
2023/03/07 08:08:17;;;;;;;13.70;7.47;;;6.10;99.90;;;;;;5014080;28;20030;-69
2023/03/07 08:10:45;;;;;;;13.10;7.38;;;6.20;99.90;;;;;;5013911;28;20037;-70
2023/03/07 08:13:12;;;;;;;14.00;7.70;;;6.30;99.90;;;;;;5015343;28;20029;-70
2023/03/07 08:15:38;;;;;;;20.60;7.80;;;6.10;99.90;;;;;;5015813;28;20026;-70
2023/03/07 08:18:03;;;;;;;13.82;7.35;;;6.20;99.90;;;;;;5014389;28;20029;-69
2023/03/07 08:20:29;;;;;;;13.17;7.40;;;6.30;99.90;;;;;;4996571;28;20022;-69
2023/03/07 08:22:54;;;;;;;12.53;7.40;;;6.20;99.90;;;;;;5014414;28;20382;-69
2023/03/07 08:25:22;;;;;;;15.77;6.70;;;6.30;99.90;;;;;;4998051;28;20335;-69
2023/03/07 08:27:53;;;;;;;13.18;7.43;;;6.30;99.90;;;;;;5014677;28;20030;-69
2023/03/07 08:30:20;;;;;;;13.35;7.10;;;6.30;99.90;;;;;;5014369;28;20105;-68
2023/03/07 08:32:47;;;;;;;;;;;6.20;99.90;;;;;;5015036;28;20026;-69
2023/03/07 08:35:13;;;;;;;13.48;7.18;;;6.20;99.90;;;;;;5014470;28;19959;-69
2023/03/07 08:37:39;;;;;;;14.80;7.47;;;6.20;99.90;;;;;;5014346;28;20038;-69
2023/03/07 08:40:05;;;;;;;11.80;7.80;;;6.30;99.90;;;;;;5013769;28;20037;-68
2023/03/07 08:42:31;;;;;;;14.02;7.72;;;6.30;99.90;;;;;;5012523;28;20022;-69
2023/03/07 08:44:56;;;;;;;19.13;7.37;;;6.30;99.90;;;;;;5013885;28;20029;-69
2023/03/07 08:47:22;;;;;;;14.20;7.60;;;6.30;99.90;;;;;;5013686;28;20030;-68
2023/03/07 08:49:47;;;;;;;14.40;6.83;;;6.30;99.90;;;;;;5011746;28;20069;-68
2023/03/07 08:52:13;;;;;;;12.33;7.03;;;6.30;99.90;;;;;;4998090;28;20022;-69
2023/03/07 08:54:38;;;;;;;12.97;7.43;;;6.40;99.90;;;;;;5015401;28;20045;-68
2023/03/07 08:57:04;;;;;;;16.83;8.27;;;6.30;99.90;;;;;;5014152;28;20030;-68
2023/03/07 08:59:29;;;;;;;12.30;7.33;;;6.30;99.90;;;;;;4995638;28;20462;-69
2023/03/07 09:01:56;;;;;;;13.17;7.10;;;6.30;99.90;;;;;;5013752;28;20061;-69
2023/03/07 09:04:22;;;;;;;13.05;7.32;;;6.30;99.90;;;;;;5014537;28;20025;-68
2023/03/07 09:06:47;;;;;;;12.95;7.60;;;6.20;99.90;;;;;;5014084;28;20034;-68
2023/03/07 09:09:13;;;;;;;14.07;7.40;;;6.20;99.90;;;;;;4995624;28;20076;-68
2023/03/07 09:11:39;;;;;;;13.37;7.43;;;6.20;99.90;;;;;;5011855;28;20079;-68
2023/03/07 09:14:04;;;;;;;12.37;6.57;;;6.20;99.90;;;;;;5013025;28;20033;-69
2023/03/07 09:16:30;;;;;;;16.63;8.37;;;6.20;99.90;;;;;;5013199;28;20030;-68
2023/03/07 09:18:55;;;;;;;13.97;8.17;;;6.30;99.90;;;;;;5012787;28;20036;-69
2023/03/07 09:21:21;;;;;;;15.70;7.83;;;6.30;99.90;;;;;;4995552;28;20029;-69
2023/03/07 09:23:46;;;;;;;11.87;7.80;;;6.40;99.90;;;;;;5012896;28;20021;-69
2023/03/07 09:26:12;;;;;;;13.52;7.50;;;6.40;99.90;;;;;;5014628;28;20057;-69
2023/03/07 09:28:38;;;;;;;16.17;8.27;;;6.40;99.90;;;;;;4999881;28;20065;-69
2023/03/07 09:31:11;;;;;;;15.73;7.97;;;6.40;99.90;;;;;;5017819;28;20092;-69
2023/03/07 09:33:37;;;;;;;14.65;7.90;;;6.50;99.90;;;;;;4999249;28;20028;-69
2023/03/07 09:36:08;;;;;;;15.68;7.93;;;6.60;99.90;;;;;;5016574;28;20026;-68
2023/03/07 09:38:34;;;;;;;13.75;7.38;;;6.70;99.90;;;;;;4998541;28;20085;-68
2023/03/07 09:41:25;;;;;;;14.32;6.72;;;6.80;99.90;;;;;;5016189;28;20026;-67
2023/03/07 09:44:14;;;;;;;16.85;7.55;;;6.70;99.90;;;;;;5015779;28;20022;-68
2023/03/07 09:47:14;;;;;;;13.23;7.40;;;6.70;99.90;;;;;;5016266;28;20430;-68
2023/03/07 09:49:51;;;;;;;16.20;7.90;;;6.70;99.90;;;;;;4998094;28;20029;-69
2023/03/07 09:52:23;;;;;;;12.48;6.85;;;6.60;99.90;;;;;;4998033;28;20053;-68
2023/03/07 09:54:58;;;;;;;14.02;7.35;;;6.70;99.90;;;;;;4997162;28;20037;-68
2023/03/07 09:57:49;;;;;;;14.40;6.90;;;6.80;99.90;;;;;;5015804;28;20049;-68
2023/03/07 10:00:37;;;;;;;14.55;7.95;;;7.00;99.90;;;;;;5016236;28;20116;-68
2023/03/07 10:03:30;;;;;;;13.32;7.85;;;7.10;99.90;;;;;;5016326;28;20487;-69
2023/03/07 10:06:06;;;;;;;14.18;7.55;;;7.00;99.90;;;;;;5015759;28;20065;-70
2023/03/07 10:08:33;;;;;;;13.93;7.43;;;7.00;99.90;;;;;;5015339;28;20073;-68
2023/03/07 10:11:23;;;;;;;16.52;8.00;;;7.00;99.90;;;;;;4997754;28;20029;-67
2023/03/07 10:14:07;;;;;;;12.40;6.45;;;6.90;99.80;;;;;;5015376;28;20057;-68
2023/03/07 10:16:45;;;;;;;16.10;6.88;;;6.80;99.50;;;;;;4997915;28;20056;-68
2023/03/07 10:19:47;;;;;;;12.07;6.63;;;6.80;99.80;;;;;;5015389;28;20034;-68
2023/03/07 10:22:26;;;;;;;12.07;6.88;;;6.70;99.00;;;;;;4993969;28;20116;-68
2023/03/07 10:25:11;;;;;;;12.13;6.75;;;6.70;99.40;;;;;;5015986;28;20363;-69
2023/03/07 10:27:37;;;;;;;12.10;6.90;;;6.70;99.40;;;;;;5015801;28;20466;-69
2023/03/07 10:30:14;;;;;;;11.32;6.78;;;6.90;99.30;;;;;;5015300;28;20033;-68
2023/03/07 10:32:45;;;;;;;11.60;6.43;;;7.20;98.60;;;;;;5015820;28;20030;-68
2023/03/07 10:35:10;;;;;;;12.38;7.20;;;7.30;98.20;;;;;;5015768;28;20106;-69
2023/03/07 10:37:54;;;;;;;11.83;7.33;;;7.60;97.80;;;;;;5015406;28;20026;-68
2023/03/07 10:40:43;;;;;;;12.00;6.40;;;7.50;97.50;;;;;;5015428;28;20037;-69
2023/03/07 10:43:22;;;;;;;13.00;6.53;;;7.70;97.50;;;;;;4998013;28;20033;-68
2023/03/07 10:45:48;;;;;;;12.88;7.20;;;8.00;97.00;;;;;;5015214;28;20037;-68
2023/03/07 10:48:18;;;;;;;11.13;6.73;;;8.20;96.40;;;;;;5015779;28;20029;-69
2023/03/07 10:51:05;;;;;;;14.40;7.53;;;8.20;96.10;;;;;;4998294;28;20022;-69
2023/03/07 10:53:35;;;;;;;14.18;7.40;;;8.40;95.70;;;;;;4997868;28;20483;-68
2023/03/07 10:56:17;;;;;;;14.73;6.93;;;8.60;95.40;;;;;;5015678;28;20415;-68
2023/03/07 10:59:03;;;;;;;12.68;6.65;;;8.80;94.60;;;;;;4997381;28;20100;-69
2023/03/07 11:01:30;;;;;;;11.82;6.97;;;8.80;94.40;;;;;;5016312;28;20022;-69
2023/03/07 11:04:18;;;;;;;11.77;6.90;;;8.70;94.00;;;;;;5016220;28;20053;-69
2023/03/07 11:06:56;;;;;;;11.80;6.32;;;8.30;93.90;;;;;;5015226;28;20053;-69
2023/03/07 11:09:33;;;;;;;10.35;5.72;;;8.10;94.30;;;;;;5014577;28;20099;-68
2023/03/07 11:12:04;;;;;;;12.15;6.35;;;8.00;94.40;;;;;;4997225;28;20033;-69
2023/03/07 11:14:47;;;;;;;12.93;6.65;;;7.70;94.60;;;;;;4997055;28;20479;-68
2023/03/07 11:17:39;;;;;;;10.23;6.10;;;7.80;94.70;;;;;;5015239;28;20037;-69
2023/03/07 11:20:23;;;;;;;14.57;6.40;;;7.90;94.60;;;;;;5014604;28;20124;-68
2023/03/07 11:22:49;;;;;;;11.07;6.57;;;8.00;94.40;;;;;;5014595;28;20060;-69
2023/03/07 11:25:20;;;;;;;12.40;6.50;;;8.20;94.50;;;;;;5014020;28;20034;-68
2023/03/07 11:27:51;;;;;;;10.80;5.97;;;8.20;94.10;;;;;;4996591;28;20033;-69
2023/03/07 11:30:18;;;;;;;11.68;6.07;;;8.00;93.90;;;;;;5014564;28;20085;-68
2023/03/07 11:33:06;;;;;;;10.85;5.47;;;8.10;93.80;;;;;;5014344;28;20022;-68
2023/03/07 11:35:50;;;;;;;11.02;5.50;;;8.10;93.80;;;;;;5014416;28;20036;-68
2023/03/07 11:38:27;;;;;;;10.15;6.20;;;8.10;93.70;;;;;;5015636;28;20034;-69
2023/03/07 11:41:06;;;;;;;13.25;5.68;;;8.10;93.40;;;;;;5015353;28;20037;-69
2023/03/07 11:43:45;;;;;;;13.85;5.80;;;8.10;93.20;;;;;;5014813;28;20026;-68
2023/03/07 11:46:26;;;;;;;10.90;6.28;;;8.00;93.50;;;;;;5014843;28;20018;-68
2023/03/07 11:49:15;;;;;;;8.98;5.25;;;8.00;93.20;;;;;;5014899;28;20037;-68
2023/03/07 11:52:05;;;;;;;14.95;6.80;;;8.00;93.20;;;;;;4997491;28;20070;-69
2023/03/07 11:54:51;;;;;;;15.00;6.00;;;8.00;92.90;;;;;;4996651;28;20121;-68
2023/03/07 11:57:23;;;;;;;10.55;5.97;;;8.20;92.80;;;;;;5014472;28;20028;-68
2023/03/07 12:00:16;;;;;;;17.10;6.97;;;8.20;92.60;;;;;;5014052;28;20026;-67
2023/03/07 12:03:15;;;;;;;9.93;6.00;;;8.10;92.60;;;;;;5014094;28;20497;-67
2023/03/07 12:05:49;;;;;;;9.82;5.53;;;8.10;92.90;;;;;;5013648;28;20112;-69
2023/03/07 12:08:41;;;;;;;9.48;5.90;;;8.00;92.90;;;;;;4996848;28;20018;-67
2023/03/07 12:11:26;;;;;;;12.93;6.25;;;8.10;92.80;;;;;;5013052;28;20494;-69
2023/03/07 12:14:21;;;;;;;9.65;5.22;;;8.00;93.00;;;;;;5012433;28;20037;-69
2023/03/07 12:17:11;;;;;;;11.20;5.93;;;8.20;93.10;;;;;;5014112;28;20498;-69
2023/03/07 12:19:52;;;;;;;11.70;6.40;;;8.10;93.20;;;;;;5014577;28;20028;-68
2023/03/07 12:22:55;;;;;;;11.05;6.03;;;8.00;93.00;;;;;;5016170;28;20033;-68
2023/03/07 12:25:24;;;;;;;12.27;7.03;;;7.90;93.00;;;;;;5025484;28;20026;-71
2023/03/07 12:28:05;;;;;;;9.70;5.95;;;7.90;92.90;;;;;;5026885;28;20029;-67
2023/03/07 12:31:02;;;;;;;11.60;6.00;;;7.90;93.20;;;;;;5026645;28;20025;-68
2023/03/07 12:33:45;;;;;;;10.63;5.68;;;7.80;93.20;;;;;;5025886;28;20030;-67
2023/03/07 12:36:35;;;;;;;12.35;6.00;;;7.80;93.50;;;;;;5029239;28;20086;-68
2023/03/07 12:39:21;;;;;;;13.10;6.20;;;8.00;93.40;;;;;;5026580;28;20053;-71
2023/03/07 12:42:15;;;;;;;10.15;5.28;;;8.00;93.20;;;;;;5028163;28;20125;-71
2023/03/07 12:44:49;;;;;;;9.48;5.45;;;8.00;93.00;;;;;;5030364;28;20042;-72
2023/03/07 12:47:45;;;;;;;8.95;5.57;;;8.00;93.10;;;;;;5010828;28;20037;-72
2023/03/07 12:50:11;;;;;;;11.07;5.88;;;8.10;93.00;;;;;;5016180;28;20500;-71
2023/03/07 12:52:49;;;;;;;9.10;5.65;;;8.10;92.80;;;;;;5021736;28;20057;-71
2023/03/07 12:55:17;;;;;;;10.88;6.65;;;8.30;92.90;;;;;;5019887;28;20033;-70
2023/03/07 12:57:54;;;;;;;9.95;5.63;;;8.50;92.60;;;;;;5016929;28;20057;-70
2023/03/07 13:00:21;;;;;;;14.57;6.32;;;8.60;92.20;;;;;;5015066;28;20034;-70